Time;durP1;ratioP1;P1;durP2;ratioP2;P2;SDS_P1;SDS_P2;PMS_P1;PMS_P2;Temp;Humidity;BMP_temperature;BMP_pressure;BME280_temperature;BME280_humidity;BME280_pressure;Samples;Min_cycle;Max_cycle;Signal;HPM_P1;HPM_P2
2022/06/04 00:01:46;;;;;;;10.43;5.65;;;;;;;17.85;63.16;100866.16;6082921;23;20019;-85
2022/06/04 00:04:14;;;;;;;8.27;6.20;;;;;;;17.77;63.06;100861.84;6078291;23;20023;-84
2022/06/04 00:06:45;;;;;;;10.32;6.35;;;;;;;17.72;63.65;100871.41;6077884;23;20105;-85
2022/06/04 00:09:12;;;;;;;7.22;5.95;;;;;;;17.67;64.03;100864.03;6081541;23;20027;-84
2022/06/04 00:17:19;;;;;;;8.13;6.38;;;;;;;17.49;64.59;100861.06;6081783;23;20023;-86
2022/06/04 00:19:46;;;;;;;7.85;6.05;;;;;;;17.42;64.83;100855.75;6080044;23;20038;-85
2022/06/04 00:22:13;;;;;;;7.57;6.18;;;;;;;17.34;65.00;100832.09;6078890;23;20022;-85
2022/06/04 00:24:42;;;;;;;7.93;6.47;;;;;;;17.30;65.15;100840.63;6078607;23;20023;-86
2022/06/04 00:27:14;;;;;;;8.63;6.75;;;;;;;17.37;64.46;100844.94;6077625;23;20023;-86
2022/06/04 00:29:43;;;;;;;7.93;6.22;;;;;;;17.46;64.60;100864.13;6074977;23;20053;-86
2022/06/04 00:32:10;;;;;;;8.70;6.07;;;;;;;17.36;65.11;100855.72;6077728;23;20026;-84
2022/06/04 00:34:37;;;;;;;8.50;6.50;;;;;;;17.50;64.69;100887.31;6084417;22;20077;-85
2022/06/04 00:37:04;;;;;;;7.88;6.60;;;;;;;17.50;64.61;100878.56;6096428;23;20026;-84
2022/06/04 00:39:30;;;;;;;7.63;6.70;;;;;;;17.51;64.65;100885.50;6095885;23;20026;-84
2022/06/04 00:42:03;;;;;;;6.65;6.03;;;;;;;17.48;64.84;100886.72;6096796;23;20483;-85
2022/06/04 00:45:03;;;;;;;6.90;6.20;;;;;;;17.52;65.27;100885.31;6096988;23;20026;-86
2022/06/04 00:47:31;;;;;;;8.70;7.05;;;;;;;17.42;66.02;100882.22;6099444;23;20030;-86
2022/06/04 00:49:58;;;;;;;9.55;6.90;;;;;;;17.37;66.08;100876.69;6094457;23;20026;-85
2022/06/04 00:52:26;;;;;;;9.80;7.03;;;;;;;17.36;66.14;100877.69;6096238;23;20023;-85
2022/06/04 00:54:57;;;;;;;7.10;6.30;;;;;;;17.36;65.98;100877.69;6095443;23;20358;-85
2022/06/04 00:57:56;;;;;;;7.88;7.03;;;;;;;17.40;65.58;100881.59;6093855;23;20336;-86
2022/06/04 01:00:28;;;;;;;7.85;6.72;;;;;;;17.40;65.49;100900.09;6093857;23;20360;-85
2022/06/04 01:03:07;;;;;;;8.10;6.45;;;;;;;17.36;65.15;100898.84;6093836;23;20502;-87
2022/06/04 01:05:50;;;;;;;7.93;6.45;;;;;;;17.42;64.72;100907.84;6094193;23;20076;-87
2022/06/04 01:08:40;;;;;;;8.38;7.22;;;;;;;17.39;65.12;100919.63;6094805;23;20305;-87
2022/06/04 01:11:18;;;;;;;10.18;6.25;;;;;;;17.37;65.09;100929.59;6093498;23;20018;-87
2022/06/04 01:14:08;;;;;;;7.43;6.63;;;;;;;17.30;65.19;100931.38;6094445;23;20513;-87
2022/06/04 01:16:42;;;;;;;7.85;6.70;;;;;;;17.27;65.54;100937.03;6093808;23;20072;-88
2022/06/04 01:19:36;;;;;;;8.10;6.80;;;;;;;17.32;65.10;100925.88;6094623;23;20345;-89
2022/06/04 01:22:21;;;;;;;6.70;6.00;;;;;;;17.29;65.14;100908.56;6094320;23;20021;-88
2022/06/04 01:25:05;;;;;;;9.90;6.43;;;;;;;17.24;65.25;100911.78;6093099;23;20027;-88
2022/06/04 01:27:38;;;;;;;9.43;6.50;;;;;;;17.18;65.25;100922.31;6093647;23;20057;-89
2022/06/04 01:30:17;;;;;;;12.18;7.85;;;;;;;17.16;65.41;100919.06;6093481;23;20335;-88
2022/06/04 01:32:50;;;;;;;7.43;6.63;;;;;;;17.19;65.42;100919.47;6093366;23;20018;-88
2022/06/04 01:35:24;;;;;;;8.43;6.63;;;;;;;17.11;65.79;100916.16;6064707;23;20359;-87
2022/06/04 01:38:00;;;;;;;10.95;6.47;;;;;;;17.05;65.90;100924.84;6064688;23;20137;-88
2022/06/04 01:43:20;;;;;;;8.73;6.80;;;;;;;16.91;66.25;100923.94;6065333;23;20034;-85
2022/06/04 01:45:49;;;;;;;11.52;8.80;;;;;;;16.91;66.48;100927.41;6065720;23;20110;-87
2022/06/04 01:48:18;;;;;;;10.90;7.38;;;;;;;16.91;66.54;100937.16;6064668;23;20487;-85
2022/06/04 01:50:48;;;;;;;9.65;8.50;;;;;;;16.92;66.34;100931.69;6066506;23;20404;-85
2022/06/04 01:53:18;;;;;;;9.32;7.40;;;;;;;16.81;66.61;100932.19;6067318;23;20054;-84
2022/06/04 01:55:51;;;;;;;8.13;6.80;;;;;;;16.73;67.11;100936.78;6068008;23;20023;-85
2022/06/04 01:58:22;;;;;;;8.85;7.00;;;;;;;16.61;67.26;100925.84;6069573;23;20026;-85
2022/06/04 02:00:55;;;;;;;10.15;8.07;;;;;;;16.64;67.19;100944.00;6071484;23;20019;-84
2022/06/04 02:03:27;;;;;;;8.90;6.28;;;;;;;16.73;67.15;100934.94;6071464;23;20114;-85
2022/06/04 02:05:59;;;;;;;8.20;6.80;;;;;;;16.69;67.02;100917.84;6071602;23;20451;-84
2022/06/04 02:08:30;;;;;;;9.05;7.15;;;;;;;16.62;67.07;100919.56;6067743;23;20447;-85
2022/06/04 02:11:02;;;;;;;8.73;6.93;;;;;;;16.59;67.13;100919.94;6067748;23;20007;-85
2022/06/04 02:13:31;;;;;;;9.00;6.75;;;;;;;16.54;67.19;100907.28;6068027;23;20027;-87
2022/06/04 02:16:03;;;;;;;10.70;6.53;;;;;;;16.51;67.05;100909.53;6067016;23;20094;-85
2022/06/04 02:18:32;;;;;;;10.03;7.10;;;;;;;16.57;66.93;100919.31;6066953;23;20065;-86
2022/06/04 02:20:58;;;;;;;7.30;6.00;;;;;;;16.49;67.03;100916.81;6065041;23;20470;-86
2022/06/04 02:23:25;;;;;;;7.30;6.55;;;;;;;16.48;67.04;100909.88;6068540;23;20097;-84
2022/06/04 02:25:53;;;;;;;9.50;6.40;;;;;;;16.52;66.74;100913.78;6069219;23;20027;-85
2022/06/04 02:28:20;;;;;;;8.55;6.72;;;;;;;16.44;67.10;100917.38;6069790;23;20367;-85
2022/06/04 02:30:56;;;;;;;7.07;6.20;;;;;;;16.43;67.42;100920.19;6070856;23;20019;-86
2022/06/04 02:33:34;;;;;;;9.43;6.25;;;;;;;16.39;67.14;100911.81;6076782;23;20466;-85
2022/06/04 02:36:07;;;;;;;8.07;6.45;;;;;;;16.35;67.27;100907.91;6097487;23;20518;-85
2022/06/04 02:38:40;;;;;;;7.63;6.30;;;;;;;16.29;67.39;100899.91;6096341;23;20022;-85
2022/06/04 02:41:11;;;;;;;;;;;;;;;16.30;67.55;100906.84;6095177;23;20029;-85
2022/06/04 02:43:44;;;;;;;8.15;6.32;;;;;;;16.28;67.44;100912.31;6094780;23;19945;-86
2022/06/04 02:46:23;;;;;;;7.18;5.93;;;;;;;16.28;67.44;100893.81;6094392;23;20030;-86
2022/06/04 02:48:59;;;;;;;8.68;6.28;;;;;;;16.16;67.92;100896.13;6094169;23;20018;-86
2022/06/04 02:51:28;;;;;;;9.82;6.32;;;;;;;16.08;67.64;100898.06;6094245;23;20028;-85
2022/06/04 02:53:59;;;;;;;9.50;6.53;;;;;;;16.14;67.85;100890.22;6094071;23;20015;-85
2022/06/04 02:56:31;;;;;;;10.57;6.28;;;;;;;16.04;68.30;100886.25;6093781;23;20019;-85
2022/06/04 02:59:13;;;;;;;11.40;6.72;;;;;;;15.98;68.44;100877.25;6094279;23;20026;-85
2022/06/04 03:01:43;;;;;;;9.52;7.05;;;;;;;15.94;68.61;100881.25;6093971;23;20030;-85
2022/06/04 03:04:11;;;;;;;7.28;6.53;;;;;;;15.94;68.60;100875.97;6094446;23;20467;-85
2022/06/04 03:06:39;;;;;;;9.70;6.93;;;;;;;15.99;68.53;100894.72;6094062;23;20038;-86
2022/06/04 03:09:10;;;;;;;9.45;6.57;;;;;;;15.96;68.94;100900.38;6094320;23;20050;-84
2022/06/04 03:11:42;;;;;;;10.02;6.93;;;;;;;15.84;69.18;100891.28;6095014;23;20037;-84
2022/06/04 03:14:09;;;;;;;7.07;6.20;;;;;;;15.75;69.27;100882.63;6099528;23;20018;-84
2022/06/04 03:16:38;;;;;;;10.13;7.15;;;;;;;15.73;69.41;100879.38;6099550;23;20522;-84
2022/06/04 03:19:08;;;;;;;7.18;5.90;;;;;;;15.76;69.85;100880.81;6099060;23;20410;-85
2022/06/04 03:21:35;;;;;;;7.47;6.30;;;;;;;15.67;69.97;100874.81;6094548;23;20042;-87
2022/06/04 03:24:02;;;;;;;8.73;6.95;;;;;;;15.56;70.72;100862.94;6095153;23;20369;-85
2022/06/04 03:26:29;;;;;;;10.95;7.43;;;;;;;15.51;70.54;100867.09;6093445;23;20022;-86
2022/06/04 03:28:57;;;;;;;9.52;7.13;;;;;;;15.61;70.98;100886.09;6094250;23;20041;-86
2022/06/04 03:31:28;;;;;;;7.78;6.97;;;;;;;15.62;70.49;100892.19;6093399;23;20084;-86
2022/06/04 03:33:55;;;;;;;9.98;6.72;;;;;;;15.68;70.95;100892.28;6094604;23;20022;-85
2022/06/04 03:36:25;;;;;;;10.43;6.70;;;;;;;15.66;70.20;100898.75;6096967;23;20030;-85
2022/06/04 03:38:51;;;;;;;9.52;6.53;;;;;;;15.57;70.62;100901.50;6094687;23;20022;-87
2022/06/04 03:41:18;;;;;;;10.75;7.57;;;;;;;15.53;70.75;100899.38;6093273;23;20076;-86
2022/06/04 03:43:46;;;;;;;9.23;6.75;;;;;;;15.52;70.44;100898.56;6094693;23;20080;-86
2022/06/04 03:46:13;;;;;;;10.40;6.82;;;;;;;15.57;70.00;100906.78;6094038;23;20023;-86
2022/06/04 03:48:40;;;;;;;8.82;6.35;;;;;;;15.59;70.01;100914.50;6094012;23;20027;-86
2022/06/04 03:51:07;;;;;;;12.05;6.40;;;;;;;15.63;70.14;100914.94;6100023;23;20101;-85
2022/06/04 03:53:34;;;;;;;8.20;6.53;;;;;;;15.63;70.08;100920.22;6100574;23;20026;-84
2022/06/04 03:56:01;;;;;;;9.10;6.70;;;;;;;15.71;69.59;100922.75;6102703;23;20040;-84
2022/06/04 03:58:30;;;;;;;10.20;6.82;;;;;;;15.71;69.72;100923.59;6102589;23;20054;-84
2022/06/04 04:00:57;;;;;;;7.85;6.60;;;;;;;15.81;69.08;100931.22;6101785;23;20103;-85
2022/06/04 04:03:25;;;;;;;9.68;6.97;;;;;;;15.78;69.00;100931.59;6102220;23;20026;-87
2022/06/04 04:05:55;;;;;;;9.80;6.25;;;;;;;15.75;69.00;100922.22;6101605;23;20038;-85
2022/06/04 04:08:25;;;;;;;8.15;6.45;;;;;;;15.75;69.42;100921.41;6101038;23;20037;-85
2022/06/04 04:10:53;;;;;;;8.23;6.45;;;;;;;15.72;69.37;100916.47;6104177;23;20041;-86
2022/06/04 04:13:20;;;;;;;8.23;6.30;;;;;;;15.72;69.39;100924.41;6114849;23;20026;-86
2022/06/04 04:15:47;;;;;;;9.30;6.13;;;;;;;15.66;69.71;100927.75;6111349;23;20073;-85
2022/06/04 04:18:14;;;;;;;7.38;6.25;;;;;;;15.72;69.59;100935.78;6102752;23;20069;-87
2022/06/04 04:20:44;;;;;;;12.05;6.65;;;;;;;15.69;70.03;100930.03;6102223;23;20037;-85
2022/06/04 04:23:11;;;;;;;10.35;6.72;;;;;;;15.65;70.05;100934.03;6097530;23;20018;-88
2022/06/04 04:25:38;;;;;;;9.07;5.97;;;;;;;15.61;70.29;100938.84;6094487;23;20030;-87
2022/06/04 04:28:10;;;;;;;9.27;6.40;;;;;;;15.66;70.15;100943.59;6094536;23;20019;-87
2022/06/04 04:30:38;;;;;;;15.20;7.72;;;;;;;15.70;70.35;100945.69;6094670;23;20049;-88
2022/06/04 04:33:09;;;;;;;8.40;6.05;;;;;;;15.77;70.11;100943.97;6094770;23;20343;-88
2022/06/04 04:35:37;;;;;;;9.52;6.38;;;;;;;15.93;69.65;100958.81;6094664;23;20026;-89
2022/06/04 04:38:06;;;;;;;9.65;6.43;;;;;;;15.92;69.83;100951.88;6093772;23;20022;-89
2022/06/04 04:40:34;;;;;;;7.75;6.22;;;;;;;16.04;69.40;100960.97;6093808;23;20022;-88
2022/06/04 04:43:02;;;;;;;10.15;6.95;;;;;;;16.19;68.92;100963.59;6093148;23;20122;-87
2022/06/04 04:45:34;;;;;;;8.52;6.72;;;;;;;16.36;68.30;100965.00;6093092;23;20039;-87
2022/06/04 04:48:05;;;;;;;7.88;6.13;;;;;;;16.59;67.64;100962.22;6093981;23;20351;-86
2022/06/04 04:50:41;;;;;;;7.70;6.00;;;;;;;16.75;66.98;100964.66;6093620;23;20018;-87
2022/06/04 04:53:14;;;;;;;10.75;6.50;;;;;;;16.95;66.36;100969.31;6092603;23;20098;-87
2022/06/04 04:55:46;;;;;;;8.82;6.20;;;;;;;16.98;66.32;100966.31;6093380;23;20097;-86
2022/06/04 04:58:16;;;;;;;7.40;6.10;;;;;;;16.91;66.07;100959.13;6093092;23;20022;-87
2022/06/04 05:00:53;;;;;;;9.98;6.20;;;;;;;16.83;66.82;100972.47;6093516;23;20362;-87
2022/06/04 05:03:22;;;;;;;11.75;6.40;;;;;;;17.14;66.17;100974.78;6094554;23;20024;-87
2022/06/04 05:05:58;;;;;;;6.97;5.60;;;;;;;17.58;64.47;100971.84;6096223;23;20026;-85
2022/06/04 05:08:26;;;;;;;7.15;5.80;;;;;;;17.96;62.84;100984.72;6096558;23;20022;-87
2022/06/04 05:10:53;;;;;;;9.70;6.00;;;;;;;18.26;61.97;100989.75;6099617;23;20033;-83
2022/06/04 05:13:19;;;;;;;8.15;5.60;;;;;;;18.72;60.66;100990.75;6098076;23;20101;-87
2022/06/04 05:15:47;;;;;;;9.18;6.20;;;;;;;18.81;60.45;101005.47;6094205;23;20026;-86
2022/06/04 05:18:14;;;;;;;6.53;5.85;;;;;;;18.53;60.65;101002.09;6092596;23;20069;-87
2022/06/04 05:20:41;;;;;;;7.63;6.13;;;;;;;18.55;60.75;101005.34;6092850;23;20157;-86
2022/06/04 05:23:08;;;;;;;10.52;5.97;;;;;;;19.04;59.72;101006.91;6092569;23;20018;-87
2022/06/04 05:25:35;;;;;;;8.93;5.53;;;;;;;18.69;59.86;101004.41;6092635;23;20031;-86
2022/06/04 05:28:01;;;;;;;11.93;5.90;;;;;;;19.11;59.57;101000.59;6092412;23;20056;-86
2022/06/04 05:30:28;;;;;;;11.00;5.88;;;;;;;18.82;60.31;101003.63;6091731;23;20059;-86
2022/06/04 05:32:56;;;;;;;8.98;6.25;;;;;;;18.75;60.16;101006.25;6092193;23;20073;-85
2022/06/04 05:35:22;;;;;;;10.55;6.40;;;;;;;18.51;60.88;100998.81;6091928;23;20033;-85
2022/06/04 05:37:49;;;;;;;9.38;6.30;;;;;;;18.45;61.26;101002.25;6091712;23;20054;-84
2022/06/04 05:40:18;;;;;;;8.15;5.80;;;;;;;18.64;61.05;101003.38;6095368;23;20076;-86
2022/06/04 05:42:44;;;;;;;8.45;6.30;;;;;;;19.13;59.50;101006.53;6093451;23;20324;-86
2022/06/04 05:45:11;;;;;;;8.05;5.85;;;;;;;19.18;58.63;101006.72;6093183;23;20030;-86
2022/06/04 05:47:38;;;;;;;7.38;6.68;;;;;;;18.80;59.61;100998.53;6092482;23;20026;-86
2022/06/04 05:50:07;;;;;;;7.32;6.32;;;;;;;18.33;61.34;100995.91;6092969;23;20141;-86
2022/06/04 05:52:33;;;;;;;7.90;6.55;;;;;;;17.86;62.89;100994.88;6093401;23;20019;-87
2022/06/04 05:55:00;;;;;;;7.97;6.22;;;;;;;17.88;63.77;101008.72;6092395;23;20324;-87
2022/06/04 05:57:26;;;;;;;9.45;6.50;;;;;;;17.99;63.58;101013.44;6091396;23;20064;-87
2022/06/04 05:59:53;;;;;;;8.68;6.53;;;;;;;18.39;62.87;101011.03;6092088;23;20057;-85
2022/06/04 06:02:20;;;;;;;7.97;6.50;;;;;;;18.45;62.29;101010.19;6092536;23;20109;-87
2022/06/04 06:04:46;;;;;;;7.63;6.50;;;;;;;18.53;62.63;101008.19;6093334;23;20470;-86
2022/06/04 06:07:14;;;;;;;8.82;6.40;;;;;;;18.42;62.81;101016.75;6093436;23;20033;-86
2022/06/04 06:09:41;;;;;;;12.38;6.85;;;;;;;18.61;62.38;101031.09;6093261;23;20041;-86
2022/06/04 06:12:08;;;;;;;8.10;6.30;;;;;;;18.73;62.10;101032.16;6094220;23;20045;-86
2022/06/04 06:14:37;;;;;;;10.02;6.35;;;;;;;18.70;61.76;101035.22;6095247;23;20137;-86
2022/06/04 06:17:04;;;;;;;8.45;6.13;;;;;;;18.99;61.25;101035.88;6093832;23;20100;-85
2022/06/04 06:19:32;;;;;;;6.78;6.03;;;;;;;19.20;60.66;101051.63;6092141;23;20513;-85
2022/06/04 06:22:04;;;;;;;9.90;6.55;;;;;;;19.21;59.04;101038.16;6094481;23;20068;-85
2022/06/04 06:24:32;;;;;;;8.95;6.68;;;;;;;18.96;58.58;101045.03;6096636;23;20018;-85
2022/06/04 06:27:00;;;;;;;9.38;7.25;;;;;;;18.75;58.81;101051.34;6097649;23;20027;-85
2022/06/04 06:29:32;;;;;;;8.10;6.40;;;;;;;19.13;58.41;101056.09;6098206;23;20023;-85
2022/06/04 06:32:04;;;;;;;8.32;7.07;;;;;;;18.98;57.73;101043.00;6096398;23;20483;-85
2022/06/04 06:37:00;;;;;;;12.82;7.00;;;;;;;19.53;56.60;101063.09;6108862;23;20019;-84
2022/06/04 06:39:27;;;;;;;11.30;7.03;;;;;;;19.67;56.58;101068.41;6108915;23;20029;-84
2022/06/04 06:41:55;;;;;;;7.93;6.78;;;;;;;19.02;57.93;101052.19;6105815;23;20027;-85
2022/06/04 06:44:22;;;;;;;8.35;6.80;;;;;;;18.86;58.78;101061.38;6102987;23;20026;-84
2022/06/04 06:46:49;;;;;;;10.32;6.45;;;;;;;18.96;58.72;101057.50;6103210;23;20026;-85
2022/06/04 06:49:19;;;;;;;7.75;6.85;;;;;;;19.23;58.25;101073.28;6104248;23;20034;-85
2022/06/04 06:51:49;;;;;;;10.00;6.63;;;;;;;19.04;58.36;101067.91;6102205;23;20042;-85
2022/06/04 06:54:18;;;;;;;9.35;7.00;;;;;;;19.21;58.60;101061.22;6102721;23;20117;-84
2022/06/04 06:56:46;;;;;;;10.07;7.82;;;;;;;18.94;59.28;101052.38;6100479;23;20022;-84
2022/06/04 06:59:14;;;;;;;8.20;6.82;;;;;;;19.05;58.76;101069.56;6101224;23;20037;-83
2022/06/04 07:01:43;;;;;;;7.68;6.72;;;;;;;19.30;58.39;101070.63;6102522;23;20490;-85
2022/06/04 07:04:10;;;;;;;8.13;6.93;;;;;;;19.21;58.61;101063.88;6106652;23;20026;-79
2022/06/04 07:06:50;;;;;;;13.38;7.68;;;;;;;18.63;60.07;101060.88;6100973;23;20026;-84
2022/06/04 07:09:27;;;;;;;7.65;6.85;;;;;;;18.70;59.99;101050.28;6103150;23;20056;-85
2022/06/04 07:11:54;;;;;;;12.55;7.95;;;;;;;19.04;60.05;101065.25;6110297;23;20026;-84
2022/06/04 07:14:24;;;;;;;8.98;7.63;;;;;;;18.81;60.08;101050.53;6110057;23;20030;-84
2022/06/04 07:16:51;;;;;;;12.38;7.78;;;;;;;19.11;59.83;101063.44;6113730;23;20156;-85
2022/06/04 07:19:19;;;;;;;8.93;7.57;;;;;;;19.27;59.44;101057.75;6114159;23;20018;-86
2022/06/04 07:21:48;;;;;;;10.18;7.22;;;;;;;19.70;58.96;101079.44;6114481;23;20030;-85
2022/06/04 07:24:19;;;;;;;19.30;7.45;;;;;;;20.42;57.67;101051.13;6114453;23;20007;-85
2022/06/04 07:26:49;;;;;;;12.23;6.68;;;;;;;20.91;55.80;101050.47;6113760;23;20030;-86
2022/06/04 07:29:16;;;;;;;7.63;6.72;;;;;;;20.94;55.15;101075.81;6114352;23;20026;-85
2022/06/04 07:31:50;;;;;;;9.20;6.93;;;;;;;20.72;55.36;101073.50;6118698;23;20057;-83
2022/06/04 07:34:18;;;;;;;9.55;6.70;;;;;;;20.71;56.49;101061.22;6118450;23;20019;-84
2022/06/04 07:36:52;;;;;;;9.32;6.45;;;;;;;20.73;56.12;101080.44;6141586;22;20037;-86
2022/06/04 07:39:19;;;;;;;7.43;6.43;;;;;;;20.60;56.30;101085.00;6147445;22;20040;-85
2022/06/04 07:41:48;;;;;;;11.15;7.03;;;;;;;20.75;55.52;101081.06;6148113;22;20018;-83
2022/06/04 07:44:16;;;;;;;9.65;7.22;;;;;;;20.67;56.84;101091.09;6148320;22;20037;-83
2022/06/04 07:46:46;;;;;;;10.32;7.15;;;;;;;20.53;56.23;101090.34;6146659;23;20034;-84
2022/06/04 07:49:13;;;;;;;9.10;7.70;;;;;;;20.70;56.80;101091.50;6138971;23;20032;-83
2022/06/04 07:51:47;;;;;;;9.77;6.65;;;;;;;20.84;56.82;101076.28;6140062;23;20029;-84
2022/06/04 07:54:15;;;;;;;7.75;6.88;;;;;;;21.14;55.59;101072.03;6140111;23;20076;-85
2022/06/04 07:56:43;;;;;;;8.05;6.40;;;;;;;20.85;56.23;101084.03;6137495;23;20026;-83
2022/06/04 07:59:13;;;;;;;9.55;6.90;;;;;;;21.02;56.00;101086.22;6136675;23;20037;-84
2022/06/04 08:01:40;;;;;;;10.15;7.00;;;;;;;21.32;55.37;101095.25;6135887;23;20025;-83
2022/06/04 08:04:09;;;;;;;10.90;6.72;;;;;;;21.39;55.53;101089.91;6134922;23;20025;-83
2022/06/04 08:06:36;;;;;;;11.40;7.00;;;;;;;21.42;54.95;101087.63;6136215;23;20029;-84
2022/06/04 08:09:03;;;;;;;8.38;7.30;;;;;;;21.30;55.41;101094.66;6136833;23;20030;-83
2022/06/04 08:11:33;;;;;;;9.45;7.22;;;;;;;21.28;54.33;101096.72;6141547;23;20104;-86
2022/06/04 08:14:13;;;;;;;8.55;7.35;;;;;;;21.39;54.81;101090.72;6139948;23;20010;-85
2022/06/04 08:16:42;;;;;;;9.23;6.75;;;;;;;21.55;54.57;101083.22;6139755;23;20044;-85
2022/06/04 08:19:10;;;;;;;8.82;7.13;;;;;;;21.98;53.43;101083.25;6138733;23;20022;-84
2022/06/04 08:21:39;;;;;;;9.80;7.07;;;;;;;21.88;53.31;101083.75;6137765;23;20026;-84
2022/06/04 08:24:08;;;;;;;8.85;6.75;;;;;;;22.06;53.04;101069.69;6138259;23;20021;-82
2022/06/04 08:26:38;;;;;;;8.30;7.13;;;;;;;21.92;52.75;101070.81;6136440;23;20048;-85
2022/06/04 08:29:04;;;;;;;9.38;7.20;;;;;;;21.63;53.31;101069.66;6133489;23;20382;-85
2022/06/04 08:31:31;;;;;;;9.23;6.80;;;;;;;21.79;53.36;101067.22;6129531;23;20026;-83
2022/06/04 08:33:58;;;;;;;11.20;7.60;;;;;;;21.93;53.31;101059.13;6130507;23;20022;-83
2022/06/04 08:36:26;;;;;;;13.43;7.50;;;;;;;22.17;52.51;101050.28;6110420;23;20064;-83
2022/06/04 08:38:53;;;;;;;10.85;7.07;;;;;;;22.57;50.68;101055.16;6105179;23;20053;-81
2022/06/04 08:41:40;;;;;;;11.15;7.75;;;;;;;22.33;51.68;101046.19;6106878;23;20351;-82
2022/06/04 08:44:14;;;;;;;8.57;6.50;;;;;;;22.40;52.51;101045.06;6105487;23;20023;-83
2022/06/04 08:46:49;;;;;;;11.68;7.80;;;;;;;21.72;54.25;101047.03;6112116;23;20022;-84
2022/06/04 08:49:21;;;;;;;9.02;7.90;;;;;;;21.61;53.62;101037.91;6111476;23;20031;-85
2022/06/04 08:51:49;;;;;;;;;;;;;;;21.19;55.59;101063.41;6109669;23;20053;-83
2022/06/04 09:00:02;;;;;;;12.55;7.53;;;;;;;22.31;52.44;101062.41;6104898;23;20075;-82
2022/06/04 09:02:45;;;;;;;9.90;7.32;;;;;;;22.87;52.08;101061.31;6109677;23;20112;-85
2022/06/04 09:05:21;;;;;;;13.10;7.15;;;;;;;23.26;51.09;101072.47;6105352;23;20023;-84
2022/06/04 09:07:54;;;;;;;8.77;6.80;;;;;;;23.50;49.94;101071.47;6105996;23;20022;-84
2022/06/04 09:10:25;;;;;;;9.13;7.20;;;;;;;23.11;51.86;101089.72;6106597;23;20023;-85
2022/06/04 09:12:57;;;;;;;8.32;7.28;;;;;;;22.81;51.91;101100.38;6106385;23;20033;-85
2022/06/04 09:15:29;;;;;;;8.80;7.90;;;;;;;22.48;53.06;101110.63;6106126;23;20084;-84
2022/06/04 09:17:59;;;;;;;15.20;8.23;;;;;;;22.34;54.38;101114.47;6105030;23;20022;-84
2022/06/04 09:20:33;;;;;;;10.50;7.80;;;;;;;22.59;53.74;101117.91;6107738;23;20472;-84
2022/06/04 09:23:07;;;;;;;8.15;7.35;;;;;;;22.78;52.78;101124.84;6107445;23;20073;-84
2022/06/04 09:25:47;;;;;;;11.10;7.85;;;;;;;22.86;52.43;101128.25;6108164;23;20455;-85
2022/06/04 09:28:25;;;;;;;10.35;7.90;;;;;;;22.89;52.69;101123.28;6106095;23;20026;-85
2022/06/04 09:31:02;;;;;;;9.90;8.25;;;;;;;23.03;52.61;101107.91;6107675;23;20278;-84
2022/06/04 09:33:46;;;;;;;9.80;8.80;;;;;;;22.84;52.61;101121.28;6111374;23;20026;-84
2022/06/04 09:36:17;;;;;;;15.50;8.40;;;;;;;23.17;52.40;101117.34;6101928;23;20034;-85
2022/06/04 09:38:56;;;;;;;13.93;8.25;;;;;;;23.17;51.70;101122.69;6100601;23;20022;-84
2022/06/04 09:41:25;;;;;;;10.45;8.07;;;;;;;22.96;52.21;101128.53;6098547;23;20103;-83
2022/06/04 09:44:04;;;;;;;10.50;8.25;;;;;;;23.10;51.63;101120.13;6097816;23;20018;-84
2022/06/04 09:46:31;;;;;;;10.15;9.10;;;;;;;23.39;50.27;101121.13;6108426;23;20412;-83
2022/06/04 09:48:59;;;;;;;10.48;7.90;;;;;;;23.53;51.69;101119.13;6107457;23;20096;-84
2022/06/04 09:51:28;;;;;;;12.57;9.13;;;;;;;22.97;51.07;101114.16;6107278;23;20032;-84
2022/06/04 09:54:03;;;;;;;11.40;8.52;;;;;;;23.02;51.42;101108.97;6106211;23;20037;-82
2022/06/04 09:56:33;;;;;;;9.95;8.05;;;;;;;23.57;51.25;101120.28;6107081;23;20102;-84
2022/06/04 09:59:18;;;;;;;9.18;8.27;;;;;;;23.27;50.57;101124.81;6110706;23;20052;-85
2022/06/04 10:01:53;;;;;;;11.05;7.40;;;;;;;23.55;51.73;101121.56;6109592;23;20036;-84
2022/06/04 10:04:24;;;;;;;9.30;7.72;;;;;;;23.48;51.08;101117.09;6108173;23;20023;-83
2022/06/04 10:06:51;;;;;;;10.30;8.20;;;;;;;23.58;50.71;101118.44;6106917;23;20041;-84
2022/06/04 10:12:15;;;;;;;12.60;8.30;;;;;;;23.77;51.34;101130.63;6106122;23;20032;-84
2022/06/04 10:14:45;;;;;;;11.90;8.65;;;;;;;24.14;49.11;101120.53;6107157;23;20072;-84
2022/06/04 10:17:34;;;;;;;11.77;8.40;;;;;;;23.85;49.49;101116.94;6108665;23;20026;-83
2022/06/04 10:20:01;;;;;;;13.18;8.38;;;;;;;23.66;50.43;101123.41;6109951;23;20023;-83
2022/06/04 10:22:27;;;;;;;11.23;7.70;;;;;;;23.93;51.67;101124.63;6106891;23;20057;-82
2022/06/04 10:24:57;;;;;;;8.85;7.80;;;;;;;24.02;50.22;101122.41;6108260;23;20346;-84
2022/06/04 10:27:40;;;;;;;11.23;7.93;;;;;;;24.67;49.45;101124.88;6108498;23;20033;-84
2022/06/04 10:30:22;;;;;;;9.98;8.30;;;;;;;25.06;48.22;101113.34;6107992;23;20113;-84
2022/06/04 10:33:02;;;;;;;11.10;9.30;;;;;;;24.30;49.56;101135.09;6106814;23;20022;-84
2022/06/04 10:35:44;;;;;;;9.38;8.30;;;;;;;24.84;48.88;101127.63;6107858;23;20026;-85
2022/06/04 10:38:26;;;;;;;9.32;7.38;;;;;;;25.19;48.42;101125.63;6107204;23;20026;-84
2022/06/04 10:41:06;;;;;;;11.15;7.97;;;;;;;24.69;48.94;101128.94;6108037;23;20026;-84
2022/06/04 10:44:02;;;;;;;11.48;8.23;;;;;;;24.40;50.48;101120.06;6109606;23;20363;-84
2022/06/04 10:46:34;;;;;;;9.75;8.40;;;;;;;24.19;50.31;101117.16;6108661;23;20084;-84
2022/06/04 10:49:17;;;;;;;10.48;8.95;;;;;;;23.90;50.83;101124.25;6109769;23;20022;-83
2022/06/04 10:51:55;;;;;;;9.32;8.38;;;;;;;24.17;51.01;101115.53;6109783;23;20026;-84
2022/06/04 10:54:37;;;;;;;15.57;9.05;;;;;;;24.09;50.17;101094.50;6110839;23;20076;-83
2022/06/04 10:57:18;;;;;;;12.15;9.02;;;;;;;24.46;50.36;101107.63;6112120;23;20034;-83
2022/06/04 10:59:53;;;;;;;9.73;8.65;;;;;;;24.56;49.50;101094.47;6111489;23;20029;-85
2022/06/04 11:02:30;;;;;;;11.05;9.05;;;;;;;24.77;49.17;101109.84;6107079;23;20031;-83
2022/06/04 11:05:01;;;;;;;13.50;8.18;;;;;;;25.13;48.45;101087.25;6102828;23;20082;-83
2022/06/04 11:07:48;;;;;;;11.20;10.05;;;;;;;24.19;50.85;101109.94;6101949;23;20397;-84
2022/06/04 11:10:19;;;;;;;11.05;9.05;;;;;;;24.63;50.47;101097.78;6102759;23;20467;-83
2022/06/04 11:12:56;;;;;;;11.48;9.95;;;;;;;24.28;50.58;101084.50;6100289;23;20031;-82
2022/06/04 11:15:28;;;;;;;11.85;9.43;;;;;;;24.60;51.12;101092.91;6097206;23;20074;-84
2022/06/04 11:18:02;;;;;;;13.15;10.10;;;;;;;24.37;51.39;101088.44;6097628;23;20026;-84
2022/06/04 11:20:32;;;;;;;11.73;9.85;;;;;;;23.96;51.80;101094.75;6100579;23;20026;-84
2022/06/04 11:23:20;;;;;;;11.90;10.48;;;;;;;24.66;50.28;101102.66;6100063;23;20029;-83
2022/06/04 11:25:51;;;;;;;12.63;10.20;;;;;;;24.55;51.34;101084.81;6105657;23;20456;-84
2022/06/04 11:28:23;;;;;;;13.18;10.65;;;;;;;24.40;50.50;101113.91;6104605;23;20029;-83
2022/06/04 11:30:59;;;;;;;12.75;10.18;;;;;;;24.90;50.33;101097.22;6104463;23;20080;-85
2022/06/04 11:33:38;;;;;;;11.27;10.18;;;;;;;24.93;50.50;101112.81;6103423;23;20092;-84
2022/06/04 11:36:18;;;;;;;10.98;9.48;;;;;;;25.54;48.97;101104.00;6104308;23;20089;-85
2022/06/04 11:39:00;;;;;;;10.98;9.98;;;;;;;25.54;48.13;101103.19;6103753;23;20101;-84
2022/06/04 11:41:37;;;;;;;11.60;10.25;;;;;;;24.72;49.87;101115.09;6106238;23;20463;-87
2022/06/04 11:44:23;;;;;;;11.10;9.05;;;;;;;25.01;50.44;101110.59;6106893;23;20022;-83
2022/06/04 11:47:06;;;;;;;10.70;9.68;;;;;;;25.04;49.95;101114.69;6105170;23;20060;-83
2022/06/04 11:49:45;;;;;;;10.27;9.27;;;;;;;25.18;49.63;101115.97;6108528;23;20092;-83
2022/06/04 11:52:23;;;;;;;11.68;9.85;;;;;;;25.44;48.62;101104.66;6108167;23;20022;-83
2022/06/04 11:55:14;;;;;;;10.02;9.02;;;;;;;25.70;49.13;101110.44;6102328;23;20022;-84
2022/06/04 11:57:53;;;;;;;9.93;9.02;;;;;;;25.45;49.89;101121.53;6102731;23;20026;-83
2022/06/04 12:00:28;;;;;;;11.45;10.18;;;;;;;25.36;49.92;101121.13;6108166;23;20026;-83
2022/06/04 12:03:03;;;;;;;11.43;9.93;;;;;;;24.76;51.43;101112.75;6109946;23;20033;-85